Time;durP1;ratioP1;P1;durP2;ratioP2;P2;SDS_P1;SDS_P2;PMS_P1;PMS_P2;Temp;Humidity;BMP_temperature;BMP_pressure;BME280_temperature;BME280_humidity;BME280_pressure;Samples;Min_cycle;Max_cycle;Signal;HPM_P1;HPM_P2
2022/09/03 00:02:14;;;;;;;0.40;0.40;;;24.20;65.00;;;;;;4997176;28;20050;-20
2022/09/03 00:04:56;;;;;;;0.40;0.40;;;24.20;65.00;;;;;;4996833;28;20118;-19
2022/09/03 00:07:48;;;;;;;0.50;0.50;;;24.20;64.90;;;;;;5000363;28;20046;-19
2022/09/03 00:10:21;;;;;;;0.38;0.38;;;24.20;64.90;;;;;;5015084;28;20500;-21
2022/09/03 00:12:47;;;;;;;0.40;0.40;;;24.30;64.90;;;;;;4997122;28;20134;-19
2022/09/03 00:15:17;;;;;;;0.73;0.20;;;24.20;64.90;;;;;;4998272;28;20499;-19
2022/09/03 00:17:58;;;;;;;0.30;0.30;;;24.20;64.90;;;;;;4998090;28;20054;-19
2022/09/03 00:20:41;;;;;;;0.40;0.40;;;24.20;64.90;;;;;;4978419;28;20056;-20
2022/09/03 00:23:09;;;;;;;0.30;0.30;;;24.20;64.90;;;;;;4995055;28;20514;-19
2022/09/03 00:25:46;;;;;;;0.40;0.40;;;24.20;64.80;;;;;;4995398;28;20046;-19
2022/09/03 00:28:17;;;;;;;0.40;0.40;;;24.20;64.80;;;;;;4999536;28;20077;-20
2022/09/03 00:30:44;;;;;;;0.32;0.32;;;24.20;64.90;;;;;;4980556;28;20130;-19
2022/09/03 00:33:21;;;;;;;0.30;0.30;;;24.20;64.80;;;;;;4983688;28;20129;-23
2022/09/03 00:36:12;;;;;;;0.38;0.38;;;24.20;64.80;;;;;;4994811;28;20030;-20
2022/09/03 00:38:37;;;;;;;0.35;0.35;;;24.20;64.80;;;;;;4990685;28;20037;-21
2022/09/03 00:41:19;;;;;;;0.30;0.30;;;24.20;65.60;;;;;;4996655;28;21644;-19
2022/09/03 00:43:56;;;;;;;0.30;0.30;;;24.20;64.80;;;;;;5000363;28;20046;-20
2022/09/03 00:46:56;;;;;;;0.30;0.30;;;24.20;64.80;;;;;;4996089;28;20180;-23
2022/09/03 00:49:40;;;;;;;0.50;0.50;;;24.20;64.70;;;;;;5065706;28;20048;-20
2022/09/03 00:52:17;;;;;;;0.47;0.47;;;24.20;64.70;;;;;;5059236;28;20123;-21
2022/09/03 00:54:52;;;;;;;0.30;0.30;;;24.20;64.70;;;;;;5045644;28;20137;-24
2022/09/03 00:58:04;;;;;;;0.30;0.30;;;24.20;64.80;;;;;;5062188;28;20047;-24
2022/09/03 01:00:29;;;;;;;0.30;0.30;;;24.20;64.70;;;;;;5063130;28;20044;-24
2022/09/03 01:03:11;;;;;;;0.30;0.30;;;24.20;64.70;;;;;;5045315;28;20047;-23
2022/09/03 01:05:36;;;;;;;0.30;0.30;;;24.20;64.70;;;;;;5062918;28;20049;-22
2022/09/03 01:08:08;;;;;;;0.30;0.30;;;24.20;64.60;;;;;;5057233;28;20050;-22
2022/09/03 01:10:49;;;;;;;0.30;0.30;;;24.20;64.70;;;;;;5067561;28;20052;-22
2022/09/03 01:13:29;;;;;;;0.30;0.30;;;24.20;64.70;;;;;;5059431;28;20151;-22
2022/09/03 01:16:29;;;;;;;0.30;0.30;;;24.20;64.70;;;;;;5047490;28;20086;-22
2022/09/03 01:19:10;;;;;;;0.50;0.50;;;24.20;64.70;;;;;;5049099;28;20319;-21
2022/09/03 01:21:55;;;;;;;0.40;0.40;;;24.20;64.60;;;;;;5058129;28;20055;-24
2022/09/03 01:24:35;;;;;;;0.50;0.50;;;24.20;64.70;;;;;;5061667;28;20045;-22
2022/09/03 01:27:28;;;;;;;0.20;0.20;;;24.10;64.70;;;;;;4998700;28;20432;-23
2022/09/03 01:30:04;;;;;;;0.55;0.55;;;24.20;64.70;;;;;;4992584;28;20046;-23
2022/09/03 01:32:43;;;;;;;0.28;0.28;;;24.20;64.70;;;;;;4991862;28;20046;-22
2022/09/03 01:35:21;;;;;;;1.38;0.50;;;24.20;64.60;;;;;;4996764;28;20046;-23
2022/09/03 01:37:50;;;;;;;0.40;0.40;;;24.20;64.60;;;;;;4995911;28;20133;-22
2022/09/03 01:40:37;;;;;;;0.35;0.35;;;24.20;64.70;;;;;;4998923;28;20042;-21
2022/09/03 01:43:27;;;;;;;0.30;0.30;;;24.20;64.70;;;;;;4996866;28;20046;-26
2022/09/03 01:46:06;;;;;;;0.40;0.40;;;24.20;64.70;;;;;;4999975;28;20046;-22
2022/09/03 01:48:49;;;;;;;0.20;0.20;;;24.20;65.50;;;;;;4999008;28;20123;-21
2022/09/03 01:51:22;;;;;;;0.30;0.30;;;24.20;64.60;;;;;;4981426;28;20191;-22
2022/09/03 01:53:51;;;;;;;0.50;0.50;;;24.20;64.70;;;;;;4997215;28;20466;-21
2022/09/03 01:56:35;;;;;;;0.30;0.30;;;24.10;64.70;;;;;;4994668;28;20130;-23
2022/09/03 01:59:27;;;;;;;0.30;0.30;;;24.10;64.60;;;;;;5003468;28;20095;-21
2022/09/03 02:02:01;;;;;;;0.30;0.30;;;24.20;64.70;;;;;;4983760;28;20082;-22
2022/09/03 02:04:27;;;;;;;0.22;0.22;;;24.20;64.60;;;;;;4999918;28;20128;-22
2022/09/03 02:06:53;;;;;;;0.30;0.30;;;24.10;64.60;;;;;;4999792;28;20547;-25
2022/09/03 02:09:19;;;;;;;0.30;0.30;;;24.10;64.70;;;;;;4998697;28;20052;-24
2022/09/03 02:11:49;;;;;;;0.40;0.40;;;24.20;64.70;;;;;;4998611;28;20048;-21
2022/09/03 02:14:14;;;;;;;0.32;0.32;;;24.10;64.60;;;;;;5001616;28;20514;-23
2022/09/03 02:16:40;;;;;;;0.40;0.40;;;24.10;64.60;;;;;;5000879;28;20099;-24
2022/09/03 02:19:11;;;;;;;0.40;0.40;;;24.10;64.70;;;;;;4997085;28;20415;-21
2022/09/03 02:21:38;;;;;;;0.40;0.40;;;24.20;64.70;;;;;;5010413;28;20456;-21
2022/09/03 02:24:04;;;;;;;0.40;0.40;;;24.10;64.70;;;;;;4981022;28;20046;-28
2022/09/03 02:26:30;;;;;;;0.30;0.30;;;24.10;64.70;;;;;;4995418;28;20130;-27
2022/09/03 02:28:55;;;;;;;0.40;0.40;;;24.10;64.70;;;;;;5004699;28;20095;-22
2022/09/03 02:31:21;;;;;;;0.30;0.30;;;24.10;64.80;;;;;;4979429;28;20100;-22
2022/09/03 02:33:47;;;;;;;0.38;0.38;;;24.10;64.70;;;;;;5002783;28;20064;-22
2022/09/03 02:36:14;;;;;;;0.30;0.30;;;24.10;64.70;;;;;;4989368;28;20038;-21
2022/09/03 02:38:41;;;;;;;0.40;0.40;;;24.10;64.70;;;;;;5003238;28;20062;-23
2022/09/03 02:41:06;;;;;;;0.40;0.40;;;24.10;64.80;;;;;;5001838;28;20073;-22
2022/09/03 02:43:46;;;;;;;0.50;0.50;;;24.10;64.70;;;;;;4998798;28;20401;-23
2022/09/03 02:46:17;;;;;;;0.50;0.50;;;24.10;64.70;;;;;;4983902;28;20135;-21
2022/09/03 02:48:42;;;;;;;0.40;0.40;;;24.10;64.70;;;;;;4997157;28;21661;-24
2022/09/03 02:51:08;;;;;;;0.40;0.40;;;24.10;64.80;;;;;;4999456;28;20041;-22
2022/09/03 02:53:33;;;;;;;0.40;0.40;;;24.10;64.80;;;;;;5004882;28;20038;-21
2022/09/03 02:56:00;;;;;;;0.75;0.30;;;24.10;64.70;;;;;;5001021;28;20622;-22
2022/09/03 02:58:25;;;;;;;0.30;0.30;;;24.10;64.70;;;;;;5001890;28;20061;-22
2022/09/03 03:00:51;;;;;;;0.32;0.32;;;24.10;64.70;;;;;;4999599;28;20078;-22
2022/09/03 03:03:17;;;;;;;0.50;0.50;;;24.10;64.70;;;;;;4999068;28;20041;-23
2022/09/03 03:05:45;;;;;;;0.38;0.38;;;24.10;64.70;;;;;;5002741;28;20516;-21
2022/09/03 03:08:13;;;;;;;0.60;0.60;;;24.10;64.70;;;;;;4997051;28;20132;-21
2022/09/03 03:10:43;;;;;;;0.55;0.55;;;24.00;64.70;;;;;;5000324;28;20058;-21
2022/09/03 03:13:09;;;;;;;0.40;0.40;;;24.10;64.70;;;;;;4997677;28;20052;-23
2022/09/03 03:15:35;;;;;;;0.40;0.40;;;24.10;64.80;;;;;;4996650;28;21201;-22
2022/09/03 03:18:01;;;;;;;0.35;0.35;;;24.00;64.70;;;;;;4999863;28;20037;-22
2022/09/03 03:20:26;;;;;;;0.35;0.35;;;24.10;64.70;;;;;;4997758;28;20041;-23
2022/09/03 03:22:52;;;;;;;0.40;0.40;;;24.10;64.70;;;;;;4998415;28;20083;-22
2022/09/03 03:25:17;;;;;;;0.32;0.32;;;24.10;64.70;;;;;;5001097;28;20042;-22
2022/09/03 03:27:43;;;;;;;0.40;0.40;;;24.00;64.70;;;;;;5002106;28;20572;-22
2022/09/03 03:30:09;;;;;;;0.50;0.50;;;24.00;64.70;;;;;;4998722;28;20454;-24
2022/09/03 03:32:36;;;;;;;0.30;0.30;;;24.00;64.70;;;;;;5000608;28;20129;-22
2022/09/03 03:35:02;;;;;;;0.45;0.45;;;24.00;64.70;;;;;;4996149;28;20072;-21
2022/09/03 03:37:27;;;;;;;0.40;0.40;;;24.00;64.70;;;;;;4999929;28;20500;-26
2022/09/03 03:39:53;;;;;;;0.50;0.50;;;24.00;64.70;;;;;;4999281;28;20477;-25
2022/09/03 03:42:18;;;;;;;0.40;0.40;;;24.10;64.80;;;;;;4998707;28;20049;-22
2022/09/03 03:44:44;;;;;;;0.40;0.40;;;24.00;64.70;;;;;;4998263;28;20038;-23
2022/09/03 03:47:09;;;;;;;0.50;0.50;;;24.00;64.80;;;;;;4996700;28;20488;-22
2022/09/03 03:49:35;;;;;;;0.40;0.40;;;24.00;64.70;;;;;;5000980;28;20381;-22
2022/09/03 03:52:02;;;;;;;0.43;0.43;;;24.00;64.80;;;;;;5001759;28;20107;-24
2022/09/03 03:54:28;;;;;;;0.40;0.40;;;24.00;64.80;;;;;;4994000;28;20201;-22
2022/09/03 03:56:53;;;;;;;0.40;0.40;;;24.00;64.70;;;;;;4996153;28;20133;-22
2022/09/03 03:59:19;;;;;;;0.75;0.50;;;24.00;64.70;;;;;;4998319;28;20041;-21
2022/09/03 04:01:44;;;;;;;0.40;0.40;;;24.00;65.50;;;;;;4997181;28;20052;-21
2022/09/03 04:04:10;;;;;;;0.63;0.50;;;24.00;64.80;;;;;;4999968;28;20065;-21
2022/09/03 04:06:35;;;;;;;0.45;0.45;;;24.00;64.80;;;;;;4995675;28;20492;-23
2022/09/03 04:09:01;;;;;;;0.30;0.30;;;24.00;65.50;;;;;;4994473;28;20050;-21
2022/09/03 04:11:27;;;;;;;0.30;0.30;;;24.00;64.70;;;;;;4996593;28;20050;-23
2022/09/03 04:13:52;;;;;;;0.50;0.50;;;24.00;64.70;;;;;;5000976;28;20064;-24
2022/09/03 04:16:20;;;;;;;0.60;0.60;;;24.00;64.70;;;;;;5002030;28;20038;-23
2022/09/03 04:18:46;;;;;;;0.30;0.30;;;24.00;64.80;;;;;;5000156;28;20046;-22
2022/09/03 04:21:17;;;;;;;0.40;0.40;;;24.00;65.50;;;;;;4995273;28;20064;-22
2022/09/03 04:23:43;;;;;;;0.50;0.50;;;24.00;64.70;;;;;;4999807;28;20504;-24
2022/09/03 04:26:11;;;;;;;0.50;0.50;;;24.00;64.80;;;;;;4997943;28;20092;-21
2022/09/03 04:28:36;;;;;;;0.40;0.40;;;24.00;64.80;;;;;;4999266;28;20042;-23
2022/09/03 04:31:03;;;;;;;0.35;0.35;;;24.00;64.80;;;;;;5000914;28;20144;-22
2022/09/03 04:33:30;;;;;;;0.40;0.40;;;24.00;65.50;;;;;;5002641;28;20099;-23
2022/09/03 04:36:10;;;;;;;0.40;0.40;;;24.00;64.80;;;;;;5001518;28;20045;-24
2022/09/03 04:38:37;;;;;;;0.35;0.35;;;24.00;64.80;;;;;;5001424;28;20099;-22
2022/09/03 04:41:03;;;;;;;0.38;0.38;;;24.00;64.70;;;;;;5001633;28;20489;-23
2022/09/03 04:43:29;;;;;;;0.38;0.38;;;24.00;64.80;;;;;;5005006;28;20070;-22
2022/09/03 04:45:59;;;;;;;0.47;0.47;;;24.00;64.80;;;;;;4997793;28;20118;-23
2022/09/03 04:48:25;;;;;;;0.40;0.40;;;24.00;64.80;;;;;;4999093;28;20041;-24
2022/09/03 04:50:51;;;;;;;0.43;0.43;;;24.00;64.80;;;;;;5001164;28;20127;-22
2022/09/03 04:53:16;;;;;;;0.30;0.30;;;24.00;64.70;;;;;;5000333;28;20082;-23
2022/09/03 04:55:42;;;;;;;0.30;0.30;;;24.00;64.80;;;;;;4997739;28;20521;-22
2022/09/03 04:58:08;;;;;;;0.30;0.30;;;24.00;64.80;;;;;;4998341;28;20057;-24
2022/09/03 05:00:35;;;;;;;0.40;0.40;;;24.00;64.80;;;;;;5001440;28;20061;-22
2022/09/03 05:03:03;;;;;;;0.30;0.30;;;24.00;64.80;;;;;;4998320;28;20076;-21
2022/09/03 05:05:32;;;;;;;0.40;0.40;;;24.00;64.80;;;;;;4998873;28;20041;-22
2022/09/03 05:08:00;;;;;;;0.55;0.55;;;24.00;64.80;;;;;;5000413;28;20050;-23
2022/09/03 05:10:26;;;;;;;0.40;0.40;;;24.00;64.80;;;;;;4999465;28;20057;-22
2022/09/03 05:13:02;;;;;;;0.60;0.60;;;24.00;64.80;;;;;;4997717;28;20042;-23
2022/09/03 05:15:28;;;;;;;0.40;0.40;;;24.00;64.80;;;;;;4999546;28;20042;-21
2022/09/03 05:17:58;;;;;;;0.40;0.40;;;24.00;64.90;;;;;;5001221;28;20123;-22
2022/09/03 05:20:24;;;;;;;0.40;0.40;;;24.00;64.80;;;;;;5004761;28;20066;-21
2022/09/03 05:22:49;;;;;;;0.40;0.40;;;24.00;64.80;;;;;;5004273;28;20462;-24
2022/09/03 05:25:15;;;;;;;0.40;0.40;;;24.00;64.80;;;;;;5002742;28;20046;-26
2022/09/03 05:27:41;;;;;;;0.38;0.38;;;23.90;64.70;;;;;;5001852;28;20040;-21
2022/09/03 05:30:08;;;;;;;0.40;0.40;;;24.00;64.80;;;;;;5004714;28;20037;-22
2022/09/03 05:32:33;;;;;;;0.40;0.40;;;24.00;64.90;;;;;;5006107;28;20038;-22
2022/09/03 05:34:59;;;;;;;0.70;0.70;;;24.00;64.80;;;;;;5000944;28;20095;-21
2022/09/03 05:37:24;;;;;;;0.50;0.50;;;24.00;64.90;;;;;;5004081;28;20501;-21
2022/09/03 05:39:50;;;;;;;0.50;0.50;;;24.00;64.80;;;;;;5006785;28;20057;-24
2022/09/03 05:42:16;;;;;;;0.47;0.47;;;24.00;64.80;;;;;;5004818;28;20049;-22
2022/09/03 05:44:42;;;;;;;0.43;0.43;;;23.90;64.90;;;;;;5007403;28;20466;-21
2022/09/03 05:47:08;;;;;;;0.43;0.43;;;24.00;64.80;;;;;;5006349;28;20049;-23
2022/09/03 05:49:34;;;;;;;0.52;0.52;;;24.00;64.80;;;;;;5002217;28;20041;-24
2022/09/03 05:51:59;;;;;;;0.60;0.60;;;23.90;64.80;;;;;;5002747;28;20042;-21
2022/09/03 05:54:25;;;;;;;0.50;0.50;;;24.00;64.90;;;;;;5005503;28;20046;-22
2022/09/03 05:56:50;;;;;;;0.55;0.55;;;24.00;64.80;;;;;;5005857;28;20042;-22
2022/09/03 05:59:16;;;;;;;0.45;0.45;;;24.00;64.80;;;;;;5001485;28;20046;-22
2022/09/03 06:01:43;;;;;;;0.50;0.50;;;24.00;64.80;;;;;;5003638;28;20085;-23
2022/09/03 06:04:13;;;;;;;0.38;0.38;;;23.90;64.80;;;;;;5004446;28;20049;-21
2022/09/03 06:06:40;;;;;;;0.50;0.50;;;23.90;64.80;;;;;;5000696;28;20041;-23
2022/09/03 06:09:10;;;;;;;0.50;0.50;;;23.90;64.80;;;;;;5001726;28;20042;-22
2022/09/03 06:11:36;;;;;;;0.50;0.50;;;23.90;64.90;;;;;;5002904;28;20571;-24
2022/09/03 06:14:04;;;;;;;0.52;0.52;;;23.90;64.90;;;;;;4999981;28;20050;-22
2022/09/03 06:16:30;;;;;;;0.50;0.50;;;23.90;64.90;;;;;;5001269;28;20038;-21
2022/09/03 06:18:56;;;;;;;0.50;0.50;;;23.90;64.90;;;;;;5002562;28;20042;-24
2022/09/03 06:21:21;;;;;;;0.47;0.47;;;23.90;64.90;;;;;;5003496;28;20686;-22
2022/09/03 06:23:50;;;;;;;0.47;0.47;;;23.90;64.90;;;;;;5001481;28;20045;-24
2022/09/03 06:26:16;;;;;;;0.60;0.60;;;23.90;64.90;;;;;;5006016;28;20113;-24
2022/09/03 06:28:43;;;;;;;0.50;0.50;;;23.90;64.90;;;;;;5004774;28;20129;-23
2022/09/03 06:31:10;;;;;;;0.70;0.70;;;23.90;65.00;;;;;;5003415;28;20437;-22
2022/09/03 06:33:36;;;;;;;0.40;0.40;;;23.90;65.50;;;;;;4650932;28;10000129;-21
2022/09/03 06:36:04;;;;;;;0.40;0.40;;;23.80;65.50;;;;;;5000177;28;20069;-27
2022/09/03 06:38:30;;;;;;;0.50;0.50;;;23.80;66.40;;;;;;4998962;28;20061;-22
2022/09/03 06:41:01;;;;;;;0.50;0.50;;;23.80;65.50;;;;;;5003381;28;20121;-23
2022/09/03 06:43:26;;;;;;;0.70;0.70;;;23.80;65.70;;;;;;5001802;28;20087;-22
2022/09/03 06:45:56;;;;;;;0.80;0.80;;;23.80;65.60;;;;;;5002613;28;20175;-21
2022/09/03 06:48:22;;;;;;;1.50;0.80;;;23.80;65.70;;;;;;4998447;28;20451;-23
2022/09/03 06:50:58;;;;;;;0.70;0.70;;;23.80;66.00;;;;;;5000660;28;20057;-21
2022/09/03 06:53:25;;;;;;;0.80;0.80;;;23.80;65.90;;;;;;5000084;28;20046;-21
2022/09/03 06:55:58;;;;;;;0.80;0.80;;;23.70;66.10;;;;;;5003265;28;20034;-26
2022/09/03 06:58:27;;;;;;;1.07;1.07;;;23.80;66.30;;;;;;5004270;28;22288;-23
2022/09/03 07:00:52;;;;;;;1.13;1.08;;;23.70;66.60;;;;;;4999306;28;20353;-24
2022/09/03 07:03:19;;;;;;;1.67;1.58;;;23.70;66.60;;;;;;4998707;28;20039;-24
2022/09/03 07:05:45;;;;;;;1.42;1.42;;;23.70;66.80;;;;;;4999635;28;20139;-21
2022/09/03 07:08:11;;;;;;;1.83;1.73;;;23.70;66.80;;;;;;5001707;28;20125;-23
2022/09/03 07:10:36;;;;;;;2.13;2.03;;;23.70;66.70;;;;;;4998976;28;20037;-22
2022/09/03 07:13:05;;;;;;;2.50;2.08;;;23.60;67.70;;;;;;5000610;28;20173;-22
2022/09/03 07:15:31;;;;;;;2.80;2.60;;;23.70;67.30;;;;;;5000945;28;20088;-24
2022/09/03 07:17:57;;;;;;;2.47;2.38;;;23.70;67.10;;;;;;4995868;28;20605;-22
2022/09/03 07:20:23;;;;;;;3.00;2.90;;;23.70;67.30;;;;;;5000513;28;20129;-22
2022/09/03 07:22:48;;;;;;;2.70;2.60;;;23.60;67.40;;;;;;4999261;28;20038;-23
2022/09/03 07:25:14;;;;;;;3.17;3.08;;;23.70;67.20;;;;;;4997691;28;20423;-23
2022/09/03 07:27:39;;;;;;;3.58;3.38;;;23.70;67.30;;;;;;4996508;28;21640;-22
2022/09/03 07:30:08;;;;;;;3.53;3.38;;;23.80;67.50;;;;;;5000633;28;20042;-22
2022/09/03 07:32:35;;;;;;;4.13;3.83;;;23.70;67.40;;;;;;4999262;28;20046;-22
2022/09/03 07:35:01;;;;;;;4.65;3.97;;;23.70;67.50;;;;;;4998854;28;20038;-21
2022/09/03 07:37:26;;;;;;;4.05;3.85;;;23.70;67.70;;;;;;4993470;28;20045;-26
2022/09/03 07:39:52;;;;;;;4.65;4.35;;;23.70;67.90;;;;;;4998214;28;20038;-23
2022/09/03 07:42:19;;;;;;;4.65;4.35;;;23.70;67.90;;;;;;4997663;28;20045;-22
2022/09/03 07:44:45;;;;;;;5.03;4.68;;;23.70;67.90;;;;;;4994776;28;20098;-23
2022/09/03 07:47:11;;;;;;;4.78;4.53;;;23.70;68.50;;;;;;4999120;28;20061;-28
2022/09/03 07:49:37;;;;;;;4.47;4.25;;;23.70;68.10;;;;;;5000980;28;20492;-22
2022/09/03 07:52:03;;;;;;;4.43;4.22;;;23.60;67.90;;;;;;5007671;28;20087;-25
2022/09/03 07:54:28;;;;;;;4.75;4.45;;;23.60;68.10;;;;;;5001045;28;20045;-22
2022/09/03 07:56:54;;;;;;;4.80;4.50;;;23.70;68.20;;;;;;5000573;28;20125;-24
2022/09/03 07:59:21;;;;;;;4.50;4.28;;;23.60;68.10;;;;;;4999766;28;20038;-22
2022/09/03 08:01:47;;;;;;;5.15;4.85;;;23.60;68.10;;;;;;4998521;28;20122;-22
2022/09/03 08:04:13;;;;;;;5.05;4.72;;;23.60;68.30;;;;;;5002605;28;20503;-22
2022/09/03 08:06:38;;;;;;;4.95;4.68;;;23.70;68.30;;;;;;4998270;28;20037;-25
2022/09/03 08:09:06;;;;;;;5.47;5.18;;;23.70;68.30;;;;;;4998564;28;20071;-27
2022/09/03 08:11:33;;;;;;;5.50;5.20;;;23.70;68.30;;;;;;5001047;28;20538;-22
2022/09/03 08:14:05;;;;;;;5.13;4.82;;;23.70;68.30;;;;;;5003514;28;20061;-27
2022/09/03 08:16:38;;;;;;;5.45;5.07;;;23.70;68.40;;;;;;4996240;28;20409;-24
2022/09/03 08:19:04;;;;;;;4.77;4.47;;;23.70;68.10;;;;;;4995976;28;20089;-22
2022/09/03 08:21:29;;;;;;;5.10;4.68;;;23.70;68.30;;;;;;4999044;28;20054;-22
2022/09/03 08:24:01;;;;;;;5.07;4.68;;;23.70;68.40;;;;;;4997109;28;20056;-23
2022/09/03 08:26:28;;;;;;;5.18;4.88;;;23.80;68.10;;;;;;4997840;28;20046;-22
2022/09/03 08:28:53;;;;;;;4.35;4.05;;;23.80;67.70;;;;;;4997273;28;20504;-22
2022/09/03 08:31:21;;;;;;;4.40;4.10;;;23.90;67.70;;;;;;4997762;28;20052;-21
2022/09/03 08:33:51;;;;;;;5.00;4.68;;;23.80;67.60;;;;;;4998937;28;20082;-22
2022/09/03 08:36:18;;;;;;;5.18;4.78;;;23.90;67.80;;;;;;4997749;28;20041;-23
2022/09/03 08:38:45;;;;;;;4.30;4.00;;;23.90;67.80;;;;;;4998298;28;20592;-26
2022/09/03 08:41:43;;;;;;;4.53;4.20;;;23.90;67.70;;;;;;5000517;28;20050;-25
2022/09/03 08:44:20;;;;;;;3.70;3.50;;;23.90;67.80;;;;;;5003313;28;20158;-21
2022/09/03 08:46:51;;;;;;;3.63;3.42;;;23.90;67.70;;;;;;4997152;28;20567;-21
2022/09/03 08:49:45;;;;;;;3.90;3.70;;;23.90;67.60;;;;;;4998103;28;20032;-22
2022/09/03 08:52:20;;;;;;;4.23;3.93;;;23.90;67.70;;;;;;4999957;28;20488;-21
2022/09/03 08:54:45;;;;;;;3.97;3.78;;;23.90;67.80;;;;;;4996945;28;20034;-20
2022/09/03 08:57:12;;;;;;;3.88;3.67;;;24.00;67.90;;;;;;5000753;28;20026;-22
2022/09/03 08:59:37;;;;;;;3.05;2.95;;;24.00;67.80;;;;;;4988155;28;20504;-22
2022/09/03 09:02:41;;;;;;;3.10;3.00;;;23.90;68.40;;;;;;5000313;28;20169;-22
2022/09/03 09:05:21;;;;;;;3.83;3.60;;;24.00;67.60;;;;;;5008152;28;20521;-22
2022/09/03 09:08:15;;;;;;;3.30;3.10;;;24.00;67.70;;;;;;5002238;28;20038;-22
2022/09/03 09:10:44;;;;;;;;;;;24.00;67.60;;;;;;5005768;28;20042;-22
2022/09/03 09:13:33;;;;;;;2.47;2.38;;;24.00;67.50;;;;;;5002075;28;19992;-21
2022/09/03 09:16:20;;;;;;;2.97;2.78;;;24.00;67.80;;;;;;5004379;28;20087;-21
2022/09/03 09:18:54;;;;;;;2.78;2.67;;;24.00;67.80;;;;;;5005757;28;20046;-21
2022/09/03 09:21:28;;;;;;;2.83;2.63;;;24.00;67.80;;;;;;5018935;28;20054;-21
2022/09/03 09:23:55;;;;;;;2.78;2.65;;;24.00;67.50;;;;;;4999564;28;20103;-22
2022/09/03 09:26:21;;;;;;;2.78;2.60;;;23.90;67.60;;;;;;5004711;28;20577;-22
2022/09/03 09:29:02;;;;;;;3.00;2.90;;;24.00;67.40;;;;;;5006214;28;20046;-22
2022/09/03 09:31:29;;;;;;;2.58;2.47;;;24.00;67.70;;;;;;5002139;28;20034;-23
2022/09/03 09:34:00;;;;;;;3.00;2.80;;;23.90;67.50;;;;;;5002170;28;20041;-27
2022/09/03 09:36:27;;;;;;;2.40;2.30;;;23.90;68.00;;;;;;5002688;28;20062;-25
2022/09/03 09:38:52;;;;;;;2.50;2.40;;;23.90;67.90;;;;;;4996673;28;20134;-21
2022/09/03 09:41:19;;;;;;;2.30;2.20;;;23.90;67.50;;;;;;5000808;28;20133;-22
2022/09/03 09:43:58;;;;;;;2.22;2.13;;;23.90;67.20;;;;;;4999525;28;20046;-21
2022/09/03 09:46:25;;;;;;;2.72;2.63;;;23.90;67.70;;;;;;5001426;28;20184;-21
2022/09/03 09:48:52;;;;;;;2.50;2.40;;;23.90;67.10;;;;;;5000576;28;20921;-24
2022/09/03 09:51:23;;;;;;;2.50;2.40;;;23.90;67.30;;;;;;5001241;28;20432;-22
2022/09/03 09:54:17;;;;;;;2.28;2.17;;;24.00;67.00;;;;;;4999318;28;20030;-21
2022/09/03 09:56:44;;;;;;;2.33;2.22;;;24.00;67.40;;;;;;5000721;28;20124;-25
2022/09/03 09:59:10;;;;;;;2.20;2.10;;;23.90;67.20;;;;;;4998958;28;20605;-30
2022/09/03 10:01:38;;;;;;;2.38;2.28;;;24.00;67.10;;;;;;4999501;28;20145;-23
2022/09/03 10:04:30;;;;;;;2.38;2.28;;;24.00;67.00;;;;;;5003784;28;20050;-22
2022/09/03 10:07:01;;;;;;;2.10;2.00;;;24.00;67.00;;;;;;5002691;28;20101;-21
2022/09/03 10:09:28;;;;;;;2.30;2.20;;;24.00;66.90;;;;;;4997826;28;20061;-22
2022/09/03 10:12:13;;;;;;;2.08;1.98;;;24.00;67.00;;;;;;5004055;28;20061;-22
2022/09/03 10:15:11;;;;;;;2.03;1.92;;;24.00;67.20;;;;;;5003356;28;20046;-21
2022/09/03 10:17:58;;;;;;;1.77;1.67;;;24.00;67.10;;;;;;5001615;28;20039;-22
2022/09/03 10:20:30;;;;;;;2.08;1.98;;;24.00;66.90;;;;;;5002291;28;20073;-21
2022/09/03 10:23:20;;;;;;;2.17;2.08;;;24.00;67.10;;;;;;4997942;28;20038;-22
2022/09/03 10:26:03;;;;;;;1.95;1.85;;;24.00;67.00;;;;;;5001540;28;20041;-24
2022/09/03 10:28:29;;;;;;;2.10;2.00;;;24.00;67.10;;;;;;5002256;28;20113;-25
2022/09/03 10:31:06;;;;;;;2.10;2.00;;;24.00;66.90;;;;;;5002753;28;20042;-24
2022/09/03 10:33:35;;;;;;;1.95;1.85;;;24.00;66.80;;;;;;5004444;28;20049;-21
2022/09/03 10:36:20;;;;;;;2.30;2.20;;;24.00;66.90;;;;;;5003415;28;20498;-22
2022/09/03 10:38:48;;;;;;;2.22;2.13;;;24.00;66.80;;;;;;4998755;28;20133;-23
2022/09/03 10:41:24;;;;;;;2.17;2.08;;;24.00;66.80;;;;;;4987972;28;20073;-22
2022/09/03 10:44:12;;;;;;;2.20;2.10;;;24.00;66.80;;;;;;5001724;27;20038;-23
2022/09/03 10:46:57;;;;;;;1.83;1.73;;;24.00;66.70;;;;;;4998096;28;20074;-22
2022/09/03 10:49:30;;;;;;;1.77;1.77;;;24.00;66.70;;;;;;5000106;28;20046;-24
2022/09/03 10:52:05;;;;;;;2.08;1.98;;;24.00;66.70;;;;;;5000251;28;20036;-22
2022/09/03 10:55:06;;;;;;;1.95;1.85;;;24.00;66.70;;;;;;4997966;28;20030;-24
2022/09/03 10:57:32;;;;;;;1.55;1.55;;;24.00;66.50;;;;;;4979718;28;20050;-22
2022/09/03 11:00:11;;;;;;;1.50;1.50;;;24.00;66.40;;;;;;4996548;28;25460;-22
2022/09/03 11:02:59;;;;;;;2.20;2.10;;;24.00;66.50;;;;;;5001991;28;20046;-22
2022/09/03 11:05:37;;;;;;;1.90;1.80;;;24.00;66.50;;;;;;4997465;28;20034;-21
2022/09/03 11:08:20;;;;;;;1.85;1.75;;;24.00;66.50;;;;;;4986162;28;20080;-24
2022/09/03 11:10:53;;;;;;;1.80;1.70;;;24.00;66.50;;;;;;5000908;28;20045;-21
2022/09/03 11:13:58;;;;;;;1.70;1.70;;;24.00;67.00;;;;;;4997674;28;20068;-23
2022/09/03 11:16:32;;;;;;;2.05;1.95;;;24.00;66.40;;;;;;4995790;28;20065;-23
2022/09/03 11:19:05;;;;;;;2.08;1.98;;;24.00;66.40;;;;;;4996630;28;20045;-20
2022/09/03 11:21:31;;;;;;;1.90;1.80;;;24.00;66.30;;;;;;4996861;28;20057;-21
2022/09/03 11:24:13;;;;;;;1.80;1.80;;;24.00;66.40;;;;;;5000412;28;20061;-22
2022/09/03 11:26:42;;;;;;;1.92;1.83;;;24.00;66.30;;;;;;4997693;28;20098;-22
2022/09/03 11:29:14;;;;;;;2.00;1.90;;;24.00;67.10;;;;;;4998194;28;20527;-21
2022/09/03 11:31:58;;;;;;;1.70;1.60;;;24.00;66.10;;;;;;4997232;28;20129;-21
2022/09/03 11:34:25;;;;;;;;;;;24.10;66.30;;;;;;4996979;28;20042;-25
2022/09/03 11:36:50;;;;;;;1.50;1.50;;;24.00;66.20;;;;;;4997122;28;20015;-22
2022/09/03 11:39:22;;;;;;;2.15;2.05;;;24.00;66.20;;;;;;4997181;28;20100;-25
2022/09/03 11:41:58;;;;;;;2.10;2.00;;;24.10;66.20;;;;;;4999998;28;20053;-20
2022/09/03 11:44:24;;;;;;;1.63;1.52;;;24.10;66.10;;;;;;5003181;28;20038;-22
2022/09/03 11:46:56;;;;;;;1.70;1.60;;;24.10;66.00;;;;;;4998242;28;20573;-24
2022/09/03 11:49:29;;;;;;;1.48;1.48;;;24.10;66.10;;;;;;5001755;28;20039;-22
2022/09/03 11:52:03;;;;;;;1.40;1.40;;;24.10;66.10;;;;;;4999150;28;20046;-21
2022/09/03 11:54:32;;;;;;;1.70;1.70;;;24.10;66.10;;;;;;5000864;28;20034;-21
2022/09/03 11:57:27;;;;;;;1.40;1.30;;;24.10;65.90;;;;;;4651265;28;10000517;-22
2022/09/03 11:59:53;;;;;;;1.67;1.67;;;24.10;65.90;;;;;;4999985;28;20064;-21
2022/09/03 12:02:26;;;;;;;1.60;1.60;;;24.10;66.00;;;;;;4999004;28;20493;-22
2022/09/03 12:05:06;;;;;;;1.63;1.63;;;24.10;65.90;;;;;;5001047;28;20045;-32
2022/09/03 12:08:07;;;;;;;1.60;1.60;;;24.10;66.10;;;;;;5003554;28;20118;-21
2022/09/03 12:10:54;;;;;;;1.60;1.60;;;24.10;65.90;;;;;;5034315;28;20514;-23
2022/09/03 12:14:00;;;;;;;1.60;1.60;;;24.20;65.90;;;;;;5035521;28;20585;-21
2022/09/03 12:16:49;;;;;;;1.50;1.48;;;24.20;66.60;;;;;;5007258;28;20041;-21
2022/09/03 12:19:21;;;;;;;1.33;1.33;;;24.20;66.50;;;;;;5011584;28;20055;-26
2022/09/03 12:21:48;;;;;;;1.70;1.60;;;24.20;65.70;;;;;;5030000;28;20056;-21
2022/09/03 12:24:14;;;;;;;1.60;1.50;;;24.30;65.60;;;;;;5028717;28;20065;-22
2022/09/03 12:26:41;;;;;;;1.70;1.60;;;24.30;65.90;;;;;;5029054;28;20052;-28
2022/09/03 12:29:06;;;;;;;1.70;1.60;;;24.30;65.50;;;;;;5011568;28;20053;-21
2022/09/03 12:31:42;;;;;;;1.20;1.20;;;24.30;65.50;;;;;;5012142;28;20060;-24
2022/09/03 12:34:13;;;;;;;1.20;1.20;;;24.30;65.50;;;;;;5028069;28;20430;-22
2022/09/03 12:36:43;;;;;;;1.40;1.40;;;24.30;65.70;;;;;;5029094;28;20049;-21
2022/09/03 12:39:09;;;;;;;1.38;1.27;;;24.40;65.50;;;;;;5025418;28;20055;-26
2022/09/03 12:41:36;;;;;;;1.10;1.10;;;24.40;65.50;;;;;;5029932;28;20057;-26
2022/09/03 12:44:02;;;;;;;1.42;1.38;;;24.40;66.40;;;;;;5016044;28;20061;-21
2022/09/03 12:46:29;;;;;;;1.25;1.25;;;24.40;65.60;;;;;;4977624;28;21326;-21
2022/09/03 12:49:04;;;;;;;1.17;1.17;;;24.40;65.50;;;;;;4972902;28;20297;-20
2022/09/03 12:51:37;;;;;;;1.30;1.30;;;24.40;65.70;;;;;;4981963;28;20134;-22
2022/09/03 12:54:06;;;;;;;1.30;1.30;;;24.40;65.60;;;;;;4993994;28;20381;-22
2022/09/03 12:56:32;;;;;;;1.60;1.60;;;24.40;65.70;;;;;;4982903;28;20046;-21
2022/09/03 12:59:05;;;;;;;1.00;1.00;;;24.40;65.50;;;;;;4988717;28;20596;-24
2022/09/03 13:01:39;;;;;;;1.42;1.33;;;24.50;65.50;;;;;;4993961;28;20063;-21
2022/09/03 13:04:10;;;;;;;1.60;1.50;;;24.50;65.50;;;;;;4996339;28;20054;-23
2022/09/03 13:06:48;;;;;;;1.60;1.58;;;24.50;65.40;;;;;;4979196;28;20105;-22
2022/09/03 13:09:14;;;;;;;1.70;1.70;;;24.50;65.50;;;;;;4990670;28;20094;-22
2022/09/03 13:11:43;;;;;;;1.73;1.73;;;24.50;65.30;;;;;;4994466;28;20050;-21